sensor_id;sensor_type;location;lat;lon;timestamp;pressure;altitude;pressure_sealevel;temperature;humidity
68712;BME280;55690;51.566;19.198;2023-04-06T00:03:49;102275.02;;;2.65;68.27
68712;BME280;55690;51.566;19.198;2023-04-06T00:07:56;102275.91;;;2.65;68.26
68712;BME280;55690;51.566;19.198;2023-04-06T00:12:01;102269.94;;;2.50;68.67
68712;BME280;55690;51.566;19.198;2023-04-06T00:16:08;102276.26;;;2.46;69.03
68712;BME280;55690;51.566;19.198;2023-04-06T00:20:15;102270.70;;;2.58;68.56
68712;BME280;55690;51.566;19.198;2023-04-06T00:24:20;102267.19;;;2.54;68.70
68712;BME280;55690;51.566;19.198;2023-04-06T00:28:26;102259.84;;;2.64;68.36
68712;BME280;55690;51.566;19.198;2023-04-06T00:32:33;102261.38;;;2.79;67.98
68712;BME280;55690;51.566;19.198;2023-04-06T00:36:39;102256.51;;;2.51;68.78
68712;BME280;55690;51.566;19.198;2023-04-06T00:40:45;102258.52;;;2.37;69.65
68712;BME280;55690;51.566;19.198;2023-04-06T00:44:56;102246.76;;;2.46;69.46
68712;BME280;55690;51.566;19.198;2023-04-06T00:48:57;102237.73;;;2.51;68.79
68712;BME280;55690;51.566;19.198;2023-04-06T00:53:03;102243.96;;;2.53;68.41
68712;BME280;55690;51.566;19.198;2023-04-06T00:57:11;102246.43;;;2.64;67.61
68712;BME280;55690;51.566;19.198;2023-04-06T01:01:16;102252.63;;;2.67;68.75
68712;BME280;55690;51.566;19.198;2023-04-06T01:05:22;102249.06;;;2.67;68.71
68712;BME280;55690;51.566;19.198;2023-04-06T01:09:29;102250.13;;;2.58;68.60
68712;BME280;55690;51.566;19.198;2023-04-06T01:13:34;102252.86;;;2.55;68.82
68712;BME280;55690;51.566;19.198;2023-04-06T01:17:40;102250.26;;;2.51;68.43
68712;BME280;55690;51.566;19.198;2023-04-06T01:21:47;102254.71;;;2.52;68.72
68712;BME280;55690;51.566;19.198;2023-04-06T01:25:53;102241.83;;;2.18;68.92
68712;BME280;55690;51.566;19.198;2023-04-06T01:29:59;102241.70;;;2.26;68.97
68712;BME280;55690;51.566;19.198;2023-04-06T01:34:06;102245.27;;;2.26;69.09
68712;BME280;55690;51.566;19.198;2023-04-06T01:38:11;102249.59;;;2.37;68.78
68712;BME280;55690;51.566;19.198;2023-04-06T01:42:18;102243.68;;;2.16;69.48
68712;BME280;55690;51.566;19.198;2023-04-06T01:46:24;102245.63;;;2.05;69.61
68712;BME280;55690;51.566;19.198;2023-04-06T01:50:30;102240.27;;;2.05;69.39
68712;BME280;55690;51.566;19.198;2023-04-06T01:54:36;102241.21;;;2.01;69.85
68712;BME280;55690;51.566;19.198;2023-04-06T01:58:42;102218.05;;;1.97;69.45
68712;BME280;55690;51.566;19.198;2023-04-06T02:02:49;102220.52;;;2.12;69.13
68712;BME280;55690;51.566;19.198;2023-04-06T02:06:55;102219.67;;;2.09;69.49
68712;BME280;55690;51.566;19.198;2023-04-06T02:11:01;102224.14;;;2.08;69.91
68712;BME280;55690;51.566;19.198;2023-04-06T02:15:08;102220.72;;;1.98;70.64
68712;BME280;55690;51.566;19.198;2023-04-06T02:19:13;102218.84;;;2.05;69.82
68712;BME280;55690;51.566;19.198;2023-04-06T02:23:20;102214.31;;;2.09;69.62
68712;BME280;55690;51.566;19.198;2023-04-06T02:27:27;102226.02;;;2.02;70.74
68712;BME280;55690;51.566;19.198;2023-04-06T02:31:33;102217.79;;;2.15;69.20
68712;BME280;55690;51.566;19.198;2023-04-06T02:35:39;102216.11;;;2.08;69.94
68712;BME280;55690;51.566;19.198;2023-04-06T02:39:45;102215.29;;;2.03;69.79
68712;BME280;55690;51.566;19.198;2023-04-06T02:43:52;102218.98;;;1.94;70.61
68712;BME280;55690;51.566;19.198;2023-04-06T02:47:57;102227.87;;;1.98;69.97
68712;BME280;55690;51.566;19.198;2023-04-06T02:52:04;102226.14;;;1.94;70.26
68712;BME280;55690;51.566;19.198;2023-04-06T02:56:10;102216.66;;;1.72;71.30
68712;BME280;55690;51.566;19.198;2023-04-06T03:00:17;102220.05;;;1.83;70.26
68712;BME280;55690;51.566;19.198;2023-04-06T03:04:22;102223.95;;;1.60;71.50
68712;BME280;55690;51.566;19.198;2023-04-06T03:08:29;102229.30;;;1.60;71.05
68712;BME280;55690;51.566;19.198;2023-04-06T03:12:35;102223.13;;;1.54;71.37
68712;BME280;55690;51.566;19.198;2023-04-06T03:16:41;102226.91;;;1.38;71.74
68712;BME280;55690;51.566;19.198;2023-04-06T03:20:47;102233.38;;;1.20;72.32
68712;BME280;55690;51.566;19.198;2023-04-06T03:24:53;102233.18;;;1.35;72.43
68712;BME280;55690;51.566;19.198;2023-04-06T03:28:59;102231.34;;;1.39;72.07
68712;BME280;55690;51.566;19.198;2023-04-06T03:33:06;102226.14;;;1.29;72.06
68712;BME280;55690;51.566;19.198;2023-04-06T03:37:12;102235.97;;;1.27;72.11
68712;BME280;55690;51.566;19.198;2023-04-06T03:41:18;102235.11;;;1.25;71.88
68712;BME280;55690;51.566;19.198;2023-04-06T03:45:24;102239.81;;;1.02;72.51
68712;BME280;55690;51.566;19.198;2023-04-06T03:49:30;102239.66;;;1.17;72.01
68712;BME280;55690;51.566;19.198;2023-04-06T03:53:37;102241.39;;;1.21;72.63
68712;BME280;55690;51.566;19.198;2023-04-06T03:57:43;102244.05;;;1.24;72.29
68712;BME280;55690;51.566;19.198;2023-04-06T04:01:49;102246.78;;;1.18;71.98
68712;BME280;55690;51.566;19.198;2023-04-06T04:05:55;102243.20;;;1.19;71.74
68712;BME280;55690;51.566;19.198;2023-04-06T04:10:01;102238.99;;;0.95;72.72
68712;BME280;55690;51.566;19.198;2023-04-06T04:14:07;102245.13;;;1.05;72.42
68712;BME280;55690;51.566;19.198;2023-04-06T04:18:15;102245.88;;;1.19;72.57
68712;BME280;55690;51.566;19.198;2023-04-06T04:22:21;102244.92;;;1.25;72.23
68712;BME280;55690;51.566;19.198;2023-04-06T04:26:27;102247.66;;;1.20;72.19
68712;BME280;55690;51.566;19.198;2023-04-06T04:30:33;102243.22;;;1.18;72.35
68712;BME280;55690;51.566;19.198;2023-04-06T04:34:39;102244.91;;;1.26;72.29
68712;BME280;55690;51.566;19.198;2023-04-06T04:38:46;102243.84;;;1.40;72.27
68712;BME280;55690;51.566;19.198;2023-04-06T04:42:52;102241.98;;;1.45;72.81
68712;BME280;55690;51.566;19.198;2023-04-06T04:46:58;102252.91;;;1.28;73.39
68712;BME280;55690;51.566;19.198;2023-04-06T04:51:04;102251.59;;;1.62;73.51
68712;BME280;55690;51.566;19.198;2023-04-06T04:55:10;102252.97;;;1.91;73.06
68712;BME280;55690;51.566;19.198;2023-04-06T04:59:17;102246.53;;;2.04;73.44
68712;BME280;55690;51.566;19.198;2023-04-06T05:03:25;102252.50;;;2.21;73.34
68712;BME280;55690;51.566;19.198;2023-04-06T05:07:29;102255.25;;;2.17;74.06
68712;BME280;55690;51.566;19.198;2023-04-06T05:11:35;102248.24;;;2.10;74.96
68712;BME280;55690;51.566;19.198;2023-04-06T05:15:41;102244.84;;;2.54;74.20
68712;BME280;55690;51.566;19.198;2023-04-06T05:19:48;102250.11;;;2.60;74.27
68712;BME280;55690;51.566;19.198;2023-04-06T05:23:54;102254.45;;;2.65;74.91
68712;BME280;55690;51.566;19.198;2023-04-06T05:28:00;102238.05;;;2.84;74.29
68712;BME280;55690;51.566;19.198;2023-04-06T05:32:06;102235.14;;;2.96;73.38
68712;BME280;55690;51.566;19.198;2023-04-06T05:36:12;102243.73;;;3.13;74.49
68712;BME280;55690;51.566;19.198;2023-04-06T05:40:19;102240.59;;;3.38;72.97
68712;BME280;55690;51.566;19.198;2023-04-06T05:44:25;102231.18;;;3.58;72.22
68712;BME280;55690;51.566;19.198;2023-04-06T05:48:31;102229.20;;;3.66;72.34
68712;BME280;55690;51.566;19.198;2023-04-06T05:52:37;102227.41;;;3.67;72.15
68712;BME280;55690;51.566;19.198;2023-04-06T05:56:43;102221.50;;;3.50;72.47
68712;BME280;55690;51.566;19.198;2023-04-06T06:00:49;102216.50;;;3.75;72.74
68712;BME280;55690;51.566;19.198;2023-04-06T06:04:56;102217.08;;;3.89;72.06
68712;BME280;55690;51.566;19.198;2023-04-06T06:09:02;102209.63;;;4.00;71.84
68712;BME280;55690;51.566;19.198;2023-04-06T06:13:08;102211.47;;;3.98;71.79
68712;BME280;55690;51.566;19.198;2023-04-06T06:17:14;102210.13;;;4.17;70.75
68712;BME280;55690;51.566;19.198;2023-04-06T06:21:22;102210.86;;;4.24;70.57
68712;BME280;55690;51.566;19.198;2023-04-06T06:25:27;102212.52;;;4.29;70.69
68712;BME280;55690;51.566;19.198;2023-04-06T06:29:33;102211.09;;;4.50;69.20
68712;BME280;55690;51.566;19.198;2023-04-06T06:33:39;102207.09;;;4.66;68.97
68712;BME280;55690;51.566;19.198;2023-04-06T06:37:46;102213.96;;;4.77;69.18
68712;BME280;55690;51.566;19.198;2023-04-06T06:41:51;102201.77;;;4.29;68.42
68712;BME280;55690;51.566;19.198;2023-04-06T06:45:58;102197.05;;;4.73;68.90
68712;BME280;55690;51.566;19.198;2023-04-06T06:50:05;102199.05;;;4.65;67.54
68712;BME280;55690;51.566;19.198;2023-04-06T06:54:10;102215.84;;;5.07;67.49
68712;BME280;55690;51.566;19.198;2023-04-06T06:58:19;102198.05;;;5.01;68.58
68712;BME280;55690;51.566;19.198;2023-04-06T07:02:22;102201.49;;;5.07;68.62
68712;BME280;55690;51.566;19.198;2023-04-06T07:06:28;102192.16;;;5.20;67.60
68712;BME280;55690;51.566;19.198;2023-04-06T07:10:35;102187.87;;;5.13;66.80
68712;BME280;55690;51.566;19.198;2023-04-06T07:14:41;102199.52;;;5.44;68.11
68712;BME280;55690;51.566;19.198;2023-04-06T07:18:47;102189.91;;;5.34;66.73
68712;BME280;55690;51.566;19.198;2023-04-06T07:22:53;102201.05;;;5.53;67.25
68712;BME280;55690;51.566;19.198;2023-04-06T07:26:59;102200.96;;;5.56;65.99
68712;BME280;55690;51.566;19.198;2023-04-06T07:31:06;102197.64;;;5.76;66.10
68712;BME280;55690;51.566;19.198;2023-04-06T07:35:12;102189.65;;;5.73;65.51
68712;BME280;55690;51.566;19.198;2023-04-06T07:39:18;102194.46;;;5.92;65.38
68712;BME280;55690;51.566;19.198;2023-04-06T07:43:24;102189.57;;;5.46;65.48
68712;BME280;55690;51.566;19.198;2023-04-06T07:47:30;102185.19;;;5.72;66.34
68712;BME280;55690;51.566;19.198;2023-04-06T07:51:38;102189.46;;;5.79;65.47
68712;BME280;55690;51.566;19.198;2023-04-06T07:55:43;102180.28;;;5.56;65.50
68712;BME280;55690;51.566;19.198;2023-04-06T07:59:49;102182.34;;;5.76;65.37
68712;BME280;55690;51.566;19.198;2023-04-06T08:03:56;102176.27;;;5.69;64.42
68712;BME280;55690;51.566;19.198;2023-04-06T08:08:01;102185.06;;;6.06;65.54
68712;BME280;55690;51.566;19.198;2023-04-06T08:12:08;102173.94;;;5.87;63.60
68712;BME280;55690;51.566;19.198;2023-04-06T08:16:14;102171.68;;;6.29;62.75
68712;BME280;55690;51.566;19.198;2023-04-06T08:20:20;102181.00;;;6.72;62.31
68712;BME280;55690;51.566;19.198;2023-04-06T08:24:26;102183.95;;;6.90;63.06
68712;BME280;55690;51.566;19.198;2023-04-06T08:28:32;102176.33;;;6.77;61.08
68712;BME280;55690;51.566;19.198;2023-04-06T08:32:38;102166.56;;;6.73;61.28
68712;BME280;55690;51.566;19.198;2023-04-06T08:36:45;102168.30;;;7.47;62.00
68712;BME280;55690;51.566;19.198;2023-04-06T08:40:51;102161.14;;;7.91;61.09
68712;BME280;55690;51.566;19.198;2023-04-06T08:44:57;102150.44;;;7.66;59.82
68712;BME280;55690;51.566;19.198;2023-04-06T08:49:04;102148.62;;;7.43;61.11
68712;BME280;55690;51.566;19.198;2023-04-06T08:53:11;102158.27;;;8.17;59.84
68712;BME280;55690;51.566;19.198;2023-04-06T08:57:16;102147.10;;;7.81;60.30
68712;BME280;55690;51.566;19.198;2023-04-06T09:01:28;102142.09;;;7.72;59.67
68712;BME280;55690;51.566;19.198;2023-04-06T09:05:31;102131.68;;;8.27;58.60
68712;BME280;55690;51.566;19.198;2023-04-06T09:09:34;102131.61;;;8.28;57.62
68712;BME280;55690;51.566;19.198;2023-04-06T09:13:45;102123.37;;;8.31;56.43
68712;BME280;55690;51.566;19.198;2023-04-06T09:17:48;102126.34;;;8.25;56.51
68712;BME280;55690;51.566;19.198;2023-04-06T09:22:03;102121.27;;;8.18;56.91
68712;BME280;55690;51.566;19.198;2023-04-06T09:26:11;102119.23;;;8.45;57.87
68712;BME280;55690;51.566;19.198;2023-04-06T09:30:14;102127.02;;;8.52;57.57
68712;BME280;55690;51.566;19.198;2023-04-06T09:34:22;102128.51;;;8.17;58.34
68712;BME280;55690;51.566;19.198;2023-04-06T09:38:26;102125.41;;;7.61;58.14
68712;BME280;55690;51.566;19.198;2023-04-06T09:42:27;102128.23;;;7.58;58.90
68712;BME280;55690;51.566;19.198;2023-04-06T09:46:35;102129.81;;;7.63;59.61
68712;BME280;55690;51.566;19.198;2023-04-06T09:50:37;102123.22;;;7.71;60.31
68712;BME280;55690;51.566;19.198;2023-04-06T09:54:43;102111.77;;;8.08;59.18
68712;BME280;55690;51.566;19.198;2023-04-06T09:58:50;102108.53;;;8.82;58.95
68712;BME280;55690;51.566;19.198;2023-04-06T10:07:09;102094.16;;;9.00;56.45
68712;BME280;55690;51.566;19.198;2023-04-06T10:11:18;102090.79;;;8.34;57.15
68712;BME280;55690;51.566;19.198;2023-04-06T10:15:20;102098.57;;;8.83;57.54
68712;BME280;55690;51.566;19.198;2023-04-06T10:19:28;102104.26;;;8.36;57.35
68712;BME280;55690;51.566;19.198;2023-04-06T10:23:41;102088.19;;;8.11;56.97
68712;BME280;55690;51.566;19.198;2023-04-06T10:27:44;102088.24;;;8.10;57.62
68712;BME280;55690;51.566;19.198;2023-04-06T10:35:37;102078.22;;;8.54;56.81
68712;BME280;55690;51.566;19.198;2023-04-06T10:39:52;102079.81;;;8.98;57.23
68712;BME280;55690;51.566;19.198;2023-04-06T10:43:59;102068.32;;;8.73;57.49
68712;BME280;55690;51.566;19.198;2023-04-06T10:52:15;102056.54;;;8.74;57.25
68712;BME280;55690;51.566;19.198;2023-04-06T10:56:18;102052.84;;;8.36;57.56
68712;BME280;55690;51.566;19.198;2023-04-06T11:00:23;102055.21;;;8.64;58.23
68712;BME280;55690;51.566;19.198;2023-04-06T11:04:26;102056.16;;;8.43;58.26
68712;BME280;55690;51.566;19.198;2023-04-06T11:08:31;102053.27;;;8.25;59.28
68712;BME280;55690;51.566;19.198;2023-04-06T11:12:33;102048.31;;;8.57;59.51
68712;BME280;55690;51.566;19.198;2023-04-06T11:16:38;102054.84;;;7.89;60.16
68712;BME280;55690;51.566;19.198;2023-04-06T11:20:47;102047.46;;;8.14;59.89
68712;BME280;55690;51.566;19.198;2023-04-06T11:24:51;102044.34;;;8.23;61.32
68712;BME280;55690;51.566;19.198;2023-04-06T11:28:57;102053.39;;;8.02;61.91
68712;BME280;55690;51.566;19.198;2023-04-06T11:33:03;102040.91;;;8.20;61.20
68712;BME280;55690;51.566;19.198;2023-04-06T11:37:11;102036.83;;;8.71;61.29
68712;BME280;55690;51.566;19.198;2023-04-06T11:41:15;102044.20;;;8.26;61.68
68712;BME280;55690;51.566;19.198;2023-04-06T11:45:22;102032.55;;;8.46;60.98
68712;BME280;55690;51.566;19.198;2023-04-06T11:49:28;102031.98;;;8.18;61.19
68712;BME280;55690;51.566;19.198;2023-04-06T11:57:49;102016.58;;;8.79;61.12
68712;BME280;55690;51.566;19.198;2023-04-06T12:01:52;102011.84;;;8.45;61.00
68712;BME280;55690;51.566;19.198;2023-04-06T12:05:54;102018.13;;;8.46;61.14
68712;BME280;55690;51.566;19.198;2023-04-06T12:10:00;102019.61;;;8.53;61.29
68712;BME280;55690;51.566;19.198;2023-04-06T12:14:04;102012.84;;;8.63;61.72
68712;BME280;55690;51.566;19.198;2023-04-06T12:18:11;102003.91;;;8.41;62.21
68712;BME280;55690;51.566;19.198;2023-04-06T12:22:18;102002.83;;;8.84;61.81
68712;BME280;55690;51.566;19.198;2023-04-06T12:26:24;102006.18;;;8.29;63.03
68712;BME280;55690;51.566;19.198;2023-04-06T12:30:29;102008.80;;;7.90;63.24
68712;BME280;55690;51.566;19.198;2023-04-06T12:34:35;102009.90;;;8.27;64.65
68712;BME280;55690;51.566;19.198;2023-04-06T12:38:41;102009.73;;;7.69;66.46
68712;BME280;55690;51.566;19.198;2023-04-06T12:42:48;102017.13;;;7.20;67.57
68712;BME280;55690;51.566;19.198;2023-04-06T12:46:54;101997.33;;;8.06;67.31
68712;BME280;55690;51.566;19.198;2023-04-06T12:51:01;101999.10;;;7.64;68.51
68712;BME280;55690;51.566;19.198;2023-04-06T12:55:07;102003.25;;;7.51;69.96
68712;BME280;55690;51.566;19.198;2023-04-06T12:59:12;101995.28;;;7.90;69.48
68712;BME280;55690;51.566;19.198;2023-04-06T13:03:19;101999.91;;;8.09;69.38
68712;BME280;55690;51.566;19.198;2023-04-06T13:07:25;101991.37;;;7.97;68.79
68712;BME280;55690;51.566;19.198;2023-04-06T13:11:31;101987.91;;;7.74;70.34
68712;BME280;55690;51.566;19.198;2023-04-06T13:15:37;101988.36;;;7.19;71.15
68712;BME280;55690;51.566;19.198;2023-04-06T13:19:43;101987.73;;;7.13;70.40
68712;BME280;55690;51.566;19.198;2023-04-06T13:23:51;101987.48;;;7.19;71.20
68712;BME280;55690;51.566;19.198;2023-04-06T13:27:55;101971.72;;;7.30;70.76
68712;BME280;55690;51.566;19.198;2023-04-06T13:32:02;101969.63;;;7.37;71.24
68712;BME280;55690;51.566;19.198;2023-04-06T13:36:08;101973.61;;;7.28;72.22
68712;BME280;55690;51.566;19.198;2023-04-06T13:40:14;101967.88;;;7.14;72.32
68712;BME280;55690;51.566;19.198;2023-04-06T13:44:20;101965.70;;;7.23;72.68
68712;BME280;55690;51.566;19.198;2023-04-06T13:48:26;101971.18;;;6.98;75.02
68712;BME280;55690;51.566;19.198;2023-04-06T13:52:33;101968.64;;;7.17;74.92
68712;BME280;55690;51.566;19.198;2023-04-06T13:56:39;101955.06;;;7.19;75.93
68712;BME280;55690;51.566;19.198;2023-04-06T14:00:45;101956.30;;;6.88;76.40
68712;BME280;55690;51.566;19.198;2023-04-06T14:04:51;101959.78;;;6.45;78.53
68712;BME280;55690;51.566;19.198;2023-04-06T14:08:58;101957.55;;;7.01;77.91
68712;BME280;55690;51.566;19.198;2023-04-06T14:13:04;101944.99;;;7.44;77.65
68712;BME280;55690;51.566;19.198;2023-04-06T14:17:10;101951.80;;;6.65;79.18
68712;BME280;55690;51.566;19.198;2023-04-06T14:21:16;101963.17;;;6.74;79.06
68712;BME280;55690;51.566;19.198;2023-04-06T14:25:22;101950.39;;;7.00;79.55
68712;BME280;55690;51.566;19.198;2023-04-06T14:29:28;101943.69;;;6.65;79.98
68712;BME280;55690;51.566;19.198;2023-04-06T14:33:35;101943.34;;;6.75;79.79
68712;BME280;55690;51.566;19.198;2023-04-06T14:37:41;101941.87;;;6.89;79.76
68712;BME280;55690;51.566;19.198;2023-04-06T14:41:47;101948.09;;;6.91;79.66
68712;BME280;55690;51.566;19.198;2023-04-06T14:45:53;101950.20;;;6.60;81.46
68712;BME280;55690;51.566;19.198;2023-04-06T14:49:59;101947.51;;;6.83;80.84
68712;BME280;55690;51.566;19.198;2023-04-06T14:54:05;101941.70;;;5.99;82.39
68712;BME280;55690;51.566;19.198;2023-04-06T14:58:11;101936.73;;;6.12;83.05
68712;BME280;55690;51.566;19.198;2023-04-06T15:02:18;101938.48;;;6.13;82.03
68712;BME280;55690;51.566;19.198;2023-04-06T15:06:24;101930.04;;;6.47;82.07
68712;BME280;55690;51.566;19.198;2023-04-06T15:10:33;101927.02;;;6.78;80.60
68712;BME280;55690;51.566;19.198;2023-04-06T15:14:36;101930.84;;;6.25;81.90
68712;BME280;55690;51.566;19.198;2023-04-06T15:18:43;101931.09;;;6.43;81.98
68712;BME280;55690;51.566;19.198;2023-04-06T15:22:49;101919.86;;;6.77;81.06
68712;BME280;55690;51.566;19.198;2023-04-06T15:26:55;101918.38;;;6.46;81.94
68712;BME280;55690;51.566;19.198;2023-04-06T15:31:01;101927.73;;;6.59;81.27
68712;BME280;55690;51.566;19.198;2023-04-06T15:35:09;101916.58;;;6.68;81.29
68712;BME280;55690;51.566;19.198;2023-04-06T15:39:14;101911.23;;;6.90;80.44
68712;BME280;55690;51.566;19.198;2023-04-06T15:43:20;101910.25;;;6.70;80.99
68712;BME280;55690;51.566;19.198;2023-04-06T15:47:26;101909.05;;;6.07;83.64
68712;BME280;55690;51.566;19.198;2023-04-06T15:51:32;101910.39;;;6.43;82.06
68712;BME280;55690;51.566;19.198;2023-04-06T15:55:38;101905.95;;;6.64;81.18
68712;BME280;55690;51.566;19.198;2023-04-06T15:59:45;101922.06;;;6.44;82.66
68712;BME280;55690;51.566;19.198;2023-04-06T16:03:51;101913.86;;;5.98;83.38
68712;BME280;55690;51.566;19.198;2023-04-06T16:07:57;101922.78;;;6.00;83.60
68712;BME280;55690;51.566;19.198;2023-04-06T16:12:04;101917.14;;;6.07;83.82
68712;BME280;55690;51.566;19.198;2023-04-06T16:16:09;101917.33;;;6.02;84.39
68712;BME280;55690;51.566;19.198;2023-04-06T16:20:15;101913.45;;;6.09;84.05
68712;BME280;55690;51.566;19.198;2023-04-06T16:24:22;101910.84;;;5.81;84.74
68712;BME280;55690;51.566;19.198;2023-04-06T16:28:28;101916.56;;;5.72;85.76
68712;BME280;55690;51.566;19.198;2023-04-06T16:32:34;101912.09;;;5.46;86.59
68712;BME280;55690;51.566;19.198;2023-04-06T16:36:41;101909.98;;;5.81;85.75
68712;BME280;55690;51.566;19.198;2023-04-06T16:40:46;101904.80;;;5.75;84.98
68712;BME280;55690;51.566;19.198;2023-04-06T16:44:52;101901.77;;;5.84;85.09
68712;BME280;55690;51.566;19.198;2023-04-06T16:48:59;101902.88;;;5.78;85.04
68712;BME280;55690;51.566;19.198;2023-04-06T16:53:05;101903.48;;;6.11;84.22
68712;BME280;55690;51.566;19.198;2023-04-06T16:57:11;101905.23;;;5.89;85.36
68712;BME280;55690;51.566;19.198;2023-04-06T17:01:22;101907.48;;;5.75;86.25
68712;BME280;55690;51.566;19.198;2023-04-06T17:05:25;101899.57;;;5.70;85.89
68712;BME280;55690;51.566;19.198;2023-04-06T17:09:30;101905.93;;;5.43;87.80
68712;BME280;55690;51.566;19.198;2023-04-06T17:13:36;101901.17;;;5.76;86.17
68712;BME280;55690;51.566;19.198;2023-04-06T17:17:42;101904.48;;;5.84;85.40
68712;BME280;55690;51.566;19.198;2023-04-06T17:21:48;101908.27;;;5.78;85.43
68712;BME280;55690;51.566;19.198;2023-04-06T17:25:54;101910.63;;;5.87;85.40
68712;BME280;55690;51.566;19.198;2023-04-06T17:30:00;101922.67;;;5.77;85.94
68712;BME280;55690;51.566;19.198;2023-04-06T17:34:07;101930.90;;;5.48;86.45
68712;BME280;55690;51.566;19.198;2023-04-06T17:38:13;101927.52;;;5.94;85.04
68712;BME280;55690;51.566;19.198;2023-04-06T17:42:19;101931.13;;;5.66;85.76
68712;BME280;55690;51.566;19.198;2023-04-06T17:46:25;101942.63;;;5.72;86.55
68712;BME280;55690;51.566;19.198;2023-04-06T17:50:31;101943.79;;;5.91;85.72
68712;BME280;55690;51.566;19.198;2023-04-06T17:54:38;101937.20;;;5.99;84.80
68712;BME280;55690;51.566;19.198;2023-04-06T17:58:44;101942.09;;;5.62;86.63
68712;BME280;55690;51.566;19.198;2023-04-06T18:02:50;101946.16;;;6.00;85.22
68712;BME280;55690;51.566;19.198;2023-04-06T18:06:56;101943.36;;;6.03;84.85
68712;BME280;55690;51.566;19.198;2023-04-06T18:11:02;101935.95;;;6.08;84.88
68712;BME280;55690;51.566;19.198;2023-04-06T18:15:09;101937.91;;;6.05;85.12
68712;BME280;55690;51.566;19.198;2023-04-06T18:19:15;101936.20;;;6.02;83.82
68712;BME280;55690;51.566;19.198;2023-04-06T18:23:21;101941.35;;;6.08;84.90
68712;BME280;55690;51.566;19.198;2023-04-06T18:27:27;101935.02;;;6.09;84.26
68712;BME280;55690;51.566;19.198;2023-04-06T18:31:33;101937.65;;;5.86;85.31
68712;BME280;55690;51.566;19.198;2023-04-06T18:35:39;101935.22;;;5.78;86.38
68712;BME280;55690;51.566;19.198;2023-04-06T18:39:46;101933.08;;;5.88;85.82
68712;BME280;55690;51.566;19.198;2023-04-06T18:43:52;101941.42;;;5.55;87.26
68712;BME280;55690;51.566;19.198;2023-04-06T18:47:58;101935.82;;;5.61;87.19
68712;BME280;55690;51.566;19.198;2023-04-06T18:52:04;101935.38;;;5.74;86.69
68712;BME280;55690;51.566;19.198;2023-04-06T18:56:15;101933.39;;;5.54;87.55
68712;BME280;55690;51.566;19.198;2023-04-06T19:00:18;101922.16;;;5.66;86.91
68712;BME280;55690;51.566;19.198;2023-04-06T19:04:23;101927.22;;;5.50;87.22
68712;BME280;55690;51.566;19.198;2023-04-06T19:08:29;101924.98;;;5.37;88.13
68712;BME280;55690;51.566;19.198;2023-04-06T19:12:36;101914.13;;;5.64;86.93
68712;BME280;55690;51.566;19.198;2023-04-06T19:16:41;101919.13;;;5.24;88.67
68712;BME280;55690;51.566;19.198;2023-04-06T19:20:52;101922.19;;;5.40;88.20
68712;BME280;55690;51.566;19.198;2023-04-06T19:24:54;101907.33;;;5.54;87.89
68712;BME280;55690;51.566;19.198;2023-04-06T19:29:00;101899.97;;;5.59;87.66
68712;BME280;55690;51.566;19.198;2023-04-06T19:33:06;101901.05;;;5.79;86.25
68712;BME280;55690;51.566;19.198;2023-04-06T19:37:12;101889.30;;;5.56;87.39
68712;BME280;55690;51.566;19.198;2023-04-06T19:41:18;101893.66;;;5.34;87.68
68712;BME280;55690;51.566;19.198;2023-04-06T19:45:25;101899.57;;;5.19;89.22
68712;BME280;55690;51.566;19.198;2023-04-06T19:49:31;101880.23;;;5.59;87.64
68712;BME280;55690;51.566;19.198;2023-04-06T19:53:37;101866.56;;;5.63;87.45
68712;BME280;55690;51.566;19.198;2023-04-06T19:57:43;101871.47;;;5.52;87.98
68712;BME280;55690;51.566;19.198;2023-04-06T20:01:49;101884.30;;;5.19;89.35
68712;BME280;55690;51.566;19.198;2023-04-06T20:05:56;101879.77;;;5.46;88.65
68712;BME280;55690;51.566;19.198;2023-04-06T20:10:03;101869.25;;;5.63;87.59
68712;BME280;55690;51.566;19.198;2023-04-06T20:14:08;101868.68;;;5.55;88.15
68712;BME280;55690;51.566;19.198;2023-04-06T20:18:14;101868.83;;;5.76;87.32
68712;BME280;55690;51.566;19.198;2023-04-06T20:22:20;101863.70;;;5.43;88.58
68712;BME280;55690;51.566;19.198;2023-04-06T20:26:27;101863.70;;;5.43;87.32
68712;BME280;55690;51.566;19.198;2023-04-06T20:30:33;101871.58;;;5.49;88.34
68712;BME280;55690;51.566;19.198;2023-04-06T20:34:39;101869.61;;;5.54;87.89
68712;BME280;55690;51.566;19.198;2023-04-06T20:38:45;101878.73;;;5.50;88.07
68712;BME280;55690;51.566;19.198;2023-04-06T20:42:53;101872.77;;;5.65;87.62
68712;BME280;55690;51.566;19.198;2023-04-06T20:46:59;101877.67;;;5.79;87.14
68712;BME280;55690;51.566;19.198;2023-04-06T20:51:04;101874.98;;;5.79;87.24
68712;BME280;55690;51.566;19.198;2023-04-06T20:55:10;101871.39;;;6.05;86.25
68712;BME280;55690;51.566;19.198;2023-04-06T20:59:16;101871.08;;;5.88;86.20
68712;BME280;55690;51.566;19.198;2023-04-06T21:03:23;101856.08;;;6.06;85.76
68712;BME280;55690;51.566;19.198;2023-04-06T21:07:29;101849.15;;;5.49;87.96
68712;BME280;55690;51.566;19.198;2023-04-06T21:11:34;101853.26;;;5.84;86.96
68712;BME280;55690;51.566;19.198;2023-04-06T21:15:41;101846.16;;;5.81;87.15
68712;BME280;55690;51.566;19.198;2023-04-06T21:19:47;101838.88;;;6.08;86.55
68712;BME280;55690;51.566;19.198;2023-04-06T21:23:53;101834.09;;;5.93;86.84
68712;BME280;55690;51.566;19.198;2023-04-06T21:27:59;101839.14;;;6.02;86.25
68712;BME280;55690;51.566;19.198;2023-04-06T21:32:05;101827.57;;;5.74;87.72
68712;BME280;55690;51.566;19.198;2023-04-06T21:36:11;101818.57;;;5.99;86.33
68712;BME280;55690;51.566;19.198;2023-04-06T21:40:18;101814.46;;;5.89;86.95
68712;BME280;55690;51.566;19.198;2023-04-06T21:44:24;101811.89;;;5.85;86.69